Nulato, Alaska
Current Conditions -  °F | °C
As of 6:53 AM on Thursday 30 Oct 2014 (Local Time) from PAKV Reporting Station
Broken Clouds Broken Clouds  
Wind Chill: -15°   Ceiling: 11000
Heat Index: -11°   Visibility: 10mi
Dew Point: -13°   Wind: 5mph
Humidity: 88%   Direction: 210°SSW
Pressure: 29.91"   Gusts: NA
Location:  64.72°N, 158.13°W
Report Text: PAKV 301453Z AUTO 21004KT 10SM BKN110 M11/M13 A2991 RMK AO2 SLP131 T11111128 50000 TSNO
Loading
Personal Weather Stations






























Interactive Weather Map
Tropical Storm Tracking
New forecast layout! Learn more

10-Day Weather Forecast

Advertisements
Track Severe Weather on mobile